sensor_id;sensor_type;location;lat;lon;timestamp;pressure;altitude;pressure_sealevel;temperature;humidity
56721;BME280;53183;47.412;18.884;2023-03-26T00:01:29;98742.25;;;6.41;85.86
56721;BME280;53183;47.412;18.884;2023-03-26T00:03:59;98732.41;;;6.46;85.66
56721;BME280;53183;47.412;18.884;2023-03-26T00:06:30;98738.25;;;6.33;86.02
56721;BME280;53183;47.412;18.884;2023-03-26T00:08:58;98731.44;;;6.29;86.44
56721;BME280;53183;47.412;18.884;2023-03-26T00:11:28;98728.97;;;6.26;86.45
56721;BME280;53183;47.412;18.884;2023-03-26T00:13:56;98737.78;;;6.25;86.79
56721;BME280;53183;47.412;18.884;2023-03-26T00:16:27;98743.16;;;6.22;86.54
56721;BME280;53183;47.412;18.884;2023-03-26T00:18:55;98733.44;;;6.24;86.60
56721;BME280;53183;47.412;18.884;2023-03-26T00:21:24;98734.28;;;6.25;86.28
56721;BME280;53183;47.412;18.884;2023-03-26T00:23:59;98743.63;;;6.30;85.70
56721;BME280;53183;47.412;18.884;2023-03-26T00:26:27;98740.81;;;6.35;85.69
56721;BME280;53183;47.412;18.884;2023-03-26T00:28:57;98741.72;;;6.34;85.73
56721;BME280;53183;47.412;18.884;2023-03-26T00:31:26;98728.87;;;6.28;86.08
56721;BME280;53183;47.412;18.884;2023-03-26T00:33:54;98730.59;;;6.29;85.98
56721;BME280;53183;47.412;18.884;2023-03-26T00:36:23;98733.63;;;6.39;85.66
56721;BME280;53183;47.412;18.884;2023-03-26T00:38:52;98734.91;;;6.30;86.20
56721;BME280;53183;47.412;18.884;2023-03-26T00:41:22;98733.13;;;6.30;86.15
56721;BME280;53183;47.412;18.884;2023-03-26T00:43:54;98724.97;;;6.37;86.06
56721;BME280;53183;47.412;18.884;2023-03-26T00:46:24;98725.75;;;6.39;86.22
56721;BME280;53183;47.412;18.884;2023-03-26T00:48:52;98720.50;;;6.39;85.82
56721;BME280;53183;47.412;18.884;2023-03-26T00:51:19;98710.91;;;6.38;86.26
56721;BME280;53183;47.412;18.884;2023-03-26T00:53:48;98710.91;;;6.38;86.35
56721;BME280;53183;47.412;18.884;2023-03-26T00:56:17;98708.59;;;6.31;86.50
56721;BME280;53183;47.412;18.884;2023-03-26T00:58:45;98701.66;;;6.30;86.55
56721;BME280;53183;47.412;18.884;2023-03-26T01:01:16;98699.50;;;6.39;85.98
56721;BME280;53183;47.412;18.884;2023-03-26T01:03:45;98703.97;;;6.37;86.22
56721;BME280;53183;47.412;18.884;2023-03-26T01:06:33;98703.34;;;6.31;86.24
56721;BME280;53183;47.412;18.884;2023-03-26T01:09:12;98705.28;;;6.28;86.60
56721;BME280;53183;47.412;18.884;2023-03-26T01:11:40;98707.97;;;6.26;86.29
56721;BME280;53183;47.412;18.884;2023-03-26T01:14:11;98709.38;;;6.33;85.72
56721;BME280;53183;47.412;18.884;2023-03-26T01:16:49;98704.28;;;6.30;85.48
56721;BME280;53183;47.412;18.884;2023-03-26T01:19:30;98706.13;;;6.28;85.35
56721;BME280;53183;47.412;18.884;2023-03-26T01:22:06;98713.94;;;6.30;85.16
56721;BME280;53183;47.412;18.884;2023-03-26T01:24:37;98713.97;;;6.28;85.14
56721;BME280;53183;47.412;18.884;2023-03-26T01:38:09;98719.56;;;6.22;84.78
56721;BME280;53183;47.412;18.884;2023-03-26T01:40:59;98714.31;;;6.22;84.36
56721;BME280;53183;47.412;18.884;2023-03-26T01:46:31;98707.88;;;6.10;84.84
56721;BME280;53183;47.412;18.884;2023-03-26T01:49:03;98708.00;;;6.07;84.90
56721;BME280;53183;47.412;18.884;2023-03-26T01:51:34;98713.50;;;6.03;85.31
56721;BME280;53183;47.412;18.884;2023-03-26T01:54:05;98706.63;;;6.00;85.42
56721;BME280;53183;47.412;18.884;2023-03-26T02:02:52;98717.09;;;5.81;86.28
56721;BME280;53183;47.412;18.884;2023-03-26T02:08:22;98720.63;;;5.80;86.32
56721;BME280;53183;47.412;18.884;2023-03-26T02:10:55;98729.44;;;5.79;86.19
56721;BME280;53183;47.412;18.884;2023-03-26T02:13:24;98722.59;;;5.75;86.61
56721;BME280;53183;47.412;18.884;2023-03-26T02:15:57;98717.62;;;5.69;86.50
56721;BME280;53183;47.412;18.884;2023-03-26T02:18:27;98720.13;;;5.72;86.48
56721;BME280;53183;47.412;18.884;2023-03-26T02:21:07;98723.31;;;5.79;85.70
56721;BME280;53183;47.412;18.884;2023-03-26T02:23:42;98723.62;;;5.73;86.23
56721;BME280;53183;47.412;18.884;2023-03-26T02:26:14;98717.16;;;5.61;86.72
56721;BME280;53183;47.412;18.884;2023-03-26T02:28:45;98722.63;;;5.56;86.98
56721;BME280;53183;47.412;18.884;2023-03-26T02:31:13;98714.91;;;5.53;86.96
56721;BME280;53183;47.412;18.884;2023-03-26T02:33:43;98716.81;;;5.50;87.16
56721;BME280;53183;47.412;18.884;2023-03-26T02:36:13;98716.69;;;5.53;87.03
56721;BME280;53183;47.412;18.884;2023-03-26T02:38:42;98701.84;;;5.52;87.09
56721;BME280;53183;47.412;18.884;2023-03-26T02:41:10;98713.53;;;5.45;87.54
56721;BME280;53183;47.412;18.884;2023-03-26T02:43:38;98711.84;;;5.44;87.48
56721;BME280;53183;47.412;18.884;2023-03-26T02:46:07;98707.84;;;5.35;87.80
56721;BME280;53183;47.412;18.884;2023-03-26T02:48:36;98710.00;;;5.27;88.26
56721;BME280;53183;47.412;18.884;2023-03-26T02:51:04;98707.28;;;5.28;88.45
56721;BME280;53183;47.412;18.884;2023-03-26T02:53:33;98697.78;;;5.26;88.60
56721;BME280;53183;47.412;18.884;2023-03-26T02:56:04;98698.34;;;5.13;88.81
56721;BME280;53183;47.412;18.884;2023-03-26T02:58:34;98705.22;;;5.16;89.24
56721;BME280;53183;47.412;18.884;2023-03-26T03:01:01;98699.53;;;5.06;89.66
56721;BME280;53183;47.412;18.884;2023-03-26T03:03:30;98705.78;;;5.04;89.87
56721;BME280;53183;47.412;18.884;2023-03-26T03:05:59;98705.09;;;4.99;90.14
56721;BME280;53183;47.412;18.884;2023-03-26T03:08:27;98696.31;;;5.00;89.97
56721;BME280;53183;47.412;18.884;2023-03-26T03:10:58;98697.03;;;5.03;89.97
56721;BME280;53183;47.412;18.884;2023-03-26T03:13:28;98694.38;;;5.05;90.00
56721;BME280;53183;47.412;18.884;2023-03-26T03:15:56;98702.28;;;5.03;90.29
56721;BME280;53183;47.412;18.884;2023-03-26T03:18:23;98697.34;;;5.16;89.51
56721;BME280;53183;47.412;18.884;2023-03-26T03:20:51;98701.56;;;5.20;88.97
56721;BME280;53183;47.412;18.884;2023-03-26T03:23:19;98702.12;;;5.27;88.86
56721;BME280;53183;47.412;18.884;2023-03-26T03:25:48;98701.78;;;5.34;88.15
56721;BME280;53183;47.412;18.884;2023-03-26T03:28:19;98700.97;;;5.32;88.17
56721;BME280;53183;47.412;18.884;2023-03-26T03:30:46;98700.28;;;5.29;88.37
56721;BME280;53183;47.412;18.884;2023-03-26T03:33:15;98699.66;;;5.24;88.52
56721;BME280;53183;47.412;18.884;2023-03-26T03:35:42;98696.59;;;5.14;89.18
56721;BME280;53183;47.412;18.884;2023-03-26T03:38:11;98688.06;;;5.09;89.26
56721;BME280;53183;47.412;18.884;2023-03-26T03:40:40;98698.63;;;5.07;89.62
56721;BME280;53183;47.412;18.884;2023-03-26T03:43:07;98698.94;;;5.00;90.18
56721;BME280;53183;47.412;18.884;2023-03-26T03:45:36;98704.13;;;5.01;89.66
56721;BME280;53183;47.412;18.884;2023-03-26T03:48:05;98703.53;;;4.94;90.03
56721;BME280;53183;47.412;18.884;2023-03-26T03:50:33;98707.97;;;4.92;90.17
56721;BME280;53183;47.412;18.884;2023-03-26T03:53:03;98700.59;;;5.02;89.36
56721;BME280;53183;47.412;18.884;2023-03-26T03:55:32;98694.59;;;5.00;89.38
56721;BME280;53183;47.412;18.884;2023-03-26T03:58:00;98703.19;;;5.02;89.11
56721;BME280;53183;47.412;18.884;2023-03-26T04:00:27;98702.28;;;5.03;88.98
56721;BME280;53183;47.412;18.884;2023-03-26T04:02:57;98703.28;;;5.01;89.07
56721;BME280;53183;47.412;18.884;2023-03-26T04:05:25;98705.94;;;4.99;89.05
56721;BME280;53183;47.412;18.884;2023-03-26T04:07:52;98712.69;;;5.05;88.46
56721;BME280;53183;47.412;18.884;2023-03-26T04:10:22;98712.75;;;5.03;88.36
56721;BME280;53183;47.412;18.884;2023-03-26T04:12:51;98716.50;;;4.98;88.52
56721;BME280;53183;47.412;18.884;2023-03-26T04:15:19;98720.69;;;5.02;88.55
56721;BME280;53183;47.412;18.884;2023-03-26T04:17:47;98717.97;;;5.03;88.01
56721;BME280;53183;47.412;18.884;2023-03-26T04:20:15;98712.34;;;5.12;87.04
56721;BME280;53183;47.412;18.884;2023-03-26T04:22:42;98710.53;;;5.14;86.92
56721;BME280;53183;47.412;18.884;2023-03-26T04:25:12;98707.56;;;5.22;86.19
56721;BME280;53183;47.412;18.884;2023-03-26T04:27:41;98712.16;;;5.17;86.14
56721;BME280;53183;47.412;18.884;2023-03-26T04:30:13;98710.56;;;5.13;86.18
56721;BME280;53183;47.412;18.884;2023-03-26T04:32:44;98716.69;;;5.13;86.55
56721;BME280;53183;47.412;18.884;2023-03-26T04:35:13;98712.44;;;5.11;86.49
56721;BME280;53183;47.412;18.884;2023-03-26T04:37:43;98719.56;;;5.07;86.53
56721;BME280;53183;47.412;18.884;2023-03-26T04:40:18;98711.91;;;5.03;86.76
56721;BME280;53183;47.412;18.884;2023-03-26T04:42:46;98715.44;;;5.02;86.82
56721;BME280;53183;47.412;18.884;2023-03-26T04:45:17;98723.31;;;5.02;86.84
56721;BME280;53183;47.412;18.884;2023-03-26T04:47:51;98723.38;;;5.00;86.99
56721;BME280;53183;47.412;18.884;2023-03-26T04:50:18;98730.31;;;5.01;86.93
56721;BME280;53183;47.412;18.884;2023-03-26T04:52:46;98726.59;;;5.07;86.82
56721;BME280;53183;47.412;18.884;2023-03-26T04:55:22;98727.16;;;5.13;86.69
56721;BME280;53183;47.412;18.884;2023-03-26T04:57:58;98726.56;;;5.27;86.62
56721;BME280;53183;47.412;18.884;2023-03-26T05:00:27;98731.59;;;5.51;85.96
56721;BME280;53183;47.412;18.884;2023-03-26T05:02:56;98715.94;;;5.68;85.90
56721;BME280;53183;47.412;18.884;2023-03-26T05:05:26;98723.03;;;5.85;85.20
56721;BME280;53183;47.412;18.884;2023-03-26T05:07:56;98716.31;;;5.98;84.90
56721;BME280;53183;47.412;18.884;2023-03-26T05:10:23;98716.00;;;6.23;82.41
56721;BME280;53183;47.412;18.884;2023-03-26T05:12:51;98719.97;;;6.49;81.89
56721;BME280;53183;47.412;18.884;2023-03-26T05:15:19;98715.72;;;6.64;81.21
56721;BME280;53183;47.412;18.884;2023-03-26T05:17:48;98726.41;;;6.78;80.57
56721;BME280;53183;47.412;18.884;2023-03-26T05:20:22;98718.94;;;7.04;79.33
56721;BME280;53183;47.412;18.884;2023-03-26T05:22:50;98721.31;;;7.26;77.38
56721;BME280;53183;47.412;18.884;2023-03-26T05:25:18;98723.47;;;7.35;76.70
56721;BME280;53183;47.412;18.884;2023-03-26T05:27:45;98719.50;;;7.44;76.76
56721;BME280;53183;47.412;18.884;2023-03-26T05:30:16;98720.25;;;7.46;75.94
56721;BME280;53183;47.412;18.884;2023-03-26T05:32:45;98725.03;;;7.55;76.11
56721;BME280;53183;47.412;18.884;2023-03-26T05:35:16;98705.47;;;7.77;75.86
56721;BME280;53183;47.412;18.884;2023-03-26T05:37:44;98712.66;;;7.89;75.35
56721;BME280;53183;47.412;18.884;2023-03-26T05:40:13;98707.22;;;7.92;75.67
56721;BME280;53183;47.412;18.884;2023-03-26T05:42:43;98708.91;;;7.93;76.10
56721;BME280;53183;47.412;18.884;2023-03-26T05:45:14;98707.84;;;7.97;76.69
56721;BME280;53183;47.412;18.884;2023-03-26T05:47:42;98709.69;;;7.95;77.43
56721;BME280;53183;47.412;18.884;2023-03-26T05:50:10;98708.00;;;7.94;77.53
56721;BME280;53183;47.412;18.884;2023-03-26T05:52:38;98705.28;;;8.11;77.46
56721;BME280;53183;47.412;18.884;2023-03-26T05:55:06;98715.06;;;8.55;76.89
56721;BME280;53183;47.412;18.884;2023-03-26T05:57:40;98707.56;;;9.08;74.66
56721;BME280;53183;47.412;18.884;2023-03-26T06:00:15;98709.50;;;9.49;72.03
56721;BME280;53183;47.412;18.884;2023-03-26T06:02:42;98710.84;;;9.83;69.67
56721;BME280;53183;47.412;18.884;2023-03-26T06:05:11;98708.34;;;10.63;65.27
56721;BME280;53183;47.412;18.884;2023-03-26T06:07:42;98698.88;;;11.88;62.11
56721;BME280;53183;47.412;18.884;2023-03-26T06:10:12;98702.59;;;13.28;57.56
56721;BME280;53183;47.412;18.884;2023-03-26T06:12:44;98694.00;;;14.46;52.09
56721;BME280;53183;47.412;18.884;2023-03-26T06:15:12;98690.75;;;15.38;50.44
56721;BME280;53183;47.412;18.884;2023-03-26T06:17:39;98688.03;;;15.89;47.29
56721;BME280;53183;47.412;18.884;2023-03-26T06:20:09;98693.78;;;15.94;47.03
56721;BME280;53183;47.412;18.884;2023-03-26T06:22:37;98688.34;;;15.35;48.57
56721;BME280;53183;47.412;18.884;2023-03-26T06:25:06;98692.69;;;14.73;49.54
56721;BME280;53183;47.412;18.884;2023-03-26T06:27:34;98700.75;;;14.18;50.44
56721;BME280;53183;47.412;18.884;2023-03-26T06:30:03;98708.75;;;13.84;50.46
56721;BME280;53183;47.412;18.884;2023-03-26T06:32:31;98708.28;;;13.57;51.12
56721;BME280;53183;47.412;18.884;2023-03-26T06:34:58;98713.31;;;13.94;50.92
56721;BME280;53183;47.412;18.884;2023-03-26T06:37:26;98716.34;;;14.12;48.69
56721;BME280;53183;47.412;18.884;2023-03-26T06:39:54;98719.38;;;13.96;49.49
56721;BME280;53183;47.412;18.884;2023-03-26T06:42:21;98717.28;;;14.11;50.33
56721;BME280;53183;47.412;18.884;2023-03-26T06:45:09;98718.19;;;13.89;51.36
56721;BME280;53183;47.412;18.884;2023-03-26T06:47:43;98721.53;;;14.02;52.28
56721;BME280;53183;47.412;18.884;2023-03-26T06:50:12;98720.97;;;14.30;52.23
56721;BME280;53183;47.412;18.884;2023-03-26T06:52:40;98728.72;;;14.34;52.17
56721;BME280;53183;47.412;18.884;2023-03-26T06:55:07;98734.56;;;13.94;53.90
56721;BME280;53183;47.412;18.884;2023-03-26T06:57:37;98736.28;;;13.61;54.54
56721;BME280;53183;47.412;18.884;2023-03-26T07:00:08;98732.78;;;13.49;55.75
56721;BME280;53183;47.412;18.884;2023-03-26T07:02:40;98752.16;;;13.38;56.58
56721;BME280;53183;47.412;18.884;2023-03-26T07:05:22;98749.34;;;12.82;58.60
56721;BME280;53183;47.412;18.884;2023-03-26T07:07:57;98743.19;;;12.10;59.31
56721;BME280;53183;47.412;18.884;2023-03-26T07:10:39;98742.38;;;11.71;59.95
56721;BME280;53183;47.412;18.884;2023-03-26T07:13:08;98741.72;;;11.80;60.81
56721;BME280;53183;47.412;18.884;2023-03-26T07:15:36;98733.13;;;12.98;58.43
56721;BME280;53183;47.412;18.884;2023-03-26T07:18:04;98741.59;;;13.50;55.56
56721;BME280;53183;47.412;18.884;2023-03-26T07:20:33;98741.59;;;13.61;54.18
56721;BME280;53183;47.412;18.884;2023-03-26T07:23:00;98733.25;;;13.99;54.86
56721;BME280;53183;47.412;18.884;2023-03-26T07:25:29;98739.41;;;14.87;53.42
56721;BME280;53183;47.412;18.884;2023-03-26T07:28:03;98736.31;;;15.44;51.77
56721;BME280;53183;47.412;18.884;2023-03-26T07:30:55;98731.34;;;16.41;48.60
56721;BME280;53183;47.412;18.884;2023-03-26T07:33:48;98738.69;;;16.49;48.02
56721;BME280;53183;47.412;18.884;2023-03-26T07:46:38;98729.53;;;14.45;54.42
56721;BME280;53183;47.412;18.884;2023-03-26T07:49:10;98728.59;;;14.24;54.37
56721;BME280;53183;47.412;18.884;2023-03-26T07:51:39;98730.84;;;13.63;56.04
56721;BME280;53183;47.412;18.884;2023-03-26T07:54:09;98742.03;;;13.32;57.32
56721;BME280;53183;47.412;18.884;2023-03-26T08:07:10;98734.16;;;13.20;56.31
56721;BME280;53183;47.412;18.884;2023-03-26T08:13:47;98726.28;;;13.07;55.03
56721;BME280;53183;47.412;18.884;2023-03-26T08:29:35;98721.91;;;13.06;53.39
56721;BME280;53183;47.412;18.884;2023-03-26T08:32:15;98722.66;;;13.19;53.49
56721;BME280;53183;47.412;18.884;2023-03-26T08:34:44;98718.41;;;13.29;52.84
56721;BME280;53183;47.412;18.884;2023-03-26T08:37:12;98715.44;;;13.21;52.30
56721;BME280;53183;47.412;18.884;2023-03-26T08:39:39;98722.00;;;13.28;51.30
56721;BME280;53183;47.412;18.884;2023-03-26T08:42:22;98721.94;;;13.52;51.21
56721;BME280;53183;47.412;18.884;2023-03-26T08:45:19;98716.00;;;13.71;51.65
56721;BME280;53183;47.412;18.884;2023-03-26T08:59:39;98703.41;;;14.62;50.12
56721;BME280;53183;47.412;18.884;2023-03-26T09:19:27;98691.66;;;15.06;51.49
56721;BME280;53183;47.412;18.884;2023-03-26T09:22:21;98690.13;;;14.83;53.01
56721;BME280;53183;47.412;18.884;2023-03-26T09:24:59;98685.75;;;15.02;52.17
56721;BME280;53183;47.412;18.884;2023-03-26T09:27:36;98681.72;;;15.29;50.43
56721;BME280;53183;47.412;18.884;2023-03-26T09:35:51;98666.50;;;15.41;49.68
56721;BME280;53183;47.412;18.884;2023-03-26T09:42:00;98654.03;;;14.90;49.94
56721;BME280;53183;47.412;18.884;2023-03-26T09:49:37;98640.41;;;15.04;47.59
56721;BME280;53183;47.412;18.884;2023-03-26T09:58:05;98620.63;;;15.28;51.95
56721;BME280;53183;47.412;18.884;2023-03-26T10:00:57;98609.16;;;15.27;50.45
56721;BME280;53183;47.412;18.884;2023-03-26T10:14:36;98633.12;;;13.34;65.02
56721;BME280;53183;47.412;18.884;2023-03-26T10:17:18;98624.38;;;12.98;61.56
56721;BME280;53183;47.412;18.884;2023-03-26T10:19:58;98619.41;;;12.82;61.46
56721;BME280;53183;47.412;18.884;2023-03-26T10:52:47;98548.06;;;14.64;55.21
56721;BME280;53183;47.412;18.884;2023-03-26T10:55:21;98537.28;;;14.45;58.34
56721;BME280;53183;47.412;18.884;2023-03-26T10:57:58;98538.34;;;14.21;55.47
56721;BME280;53183;47.412;18.884;2023-03-26T11:00:27;98540.66;;;13.94;58.83
56721;BME280;53183;47.412;18.884;2023-03-26T11:03:15;98548.22;;;13.77;59.74
56721;BME280;53183;47.412;18.884;2023-03-26T11:05:53;98546.78;;;13.73;61.24
56721;BME280;53183;47.412;18.884;2023-03-26T11:08:31;98535.66;;;13.79;58.69
56721;BME280;53183;47.412;18.884;2023-03-26T11:14:02;98522.94;;;14.36;60.81
56721;BME280;53183;47.412;18.884;2023-03-26T11:25:21;98504.59;;;14.33;61.06
56721;BME280;53183;47.412;18.884;2023-03-26T11:31:01;98490.81;;;14.91;55.92
56721;BME280;53183;47.412;18.884;2023-03-26T11:33:34;98495.34;;;15.19;53.72
56721;BME280;53183;47.412;18.884;2023-03-26T11:36:09;98483.28;;;15.75;53.71
56721;BME280;53183;47.412;18.884;2023-03-26T11:38:40;98478.50;;;15.98;50.60
56721;BME280;53183;47.412;18.884;2023-03-26T11:41:22;98464.03;;;15.52;47.45
56721;BME280;53183;47.412;18.884;2023-03-26T11:43:56;98454.59;;;15.19;50.31
56721;BME280;53183;47.412;18.884;2023-03-26T11:46:28;98453.00;;;14.97;51.18
56721;BME280;53183;47.412;18.884;2023-03-26T11:49:01;98452.03;;;14.98;50.02
56721;BME280;53183;47.412;18.884;2023-03-26T11:51:34;98436.25;;;15.16;49.50
56721;BME280;53183;47.412;18.884;2023-03-26T11:54:05;98441.09;;;15.70;45.80
56721;BME280;53183;47.412;18.884;2023-03-26T11:59:15;98417.84;;;16.76;39.67
56721;BME280;53183;47.412;18.884;2023-03-26T12:02:22;98417.50;;;16.89;39.11
56721;BME280;53183;47.412;18.884;2023-03-26T12:04:52;98416.88;;;17.58;38.19
56721;BME280;53183;47.412;18.884;2023-03-26T12:07:31;98415.66;;;17.89;36.51
56721;BME280;53183;47.412;18.884;2023-03-26T12:10:03;98408.25;;;17.83;36.05
56721;BME280;53183;47.412;18.884;2023-03-26T12:12:46;98391.69;;;17.79;36.12
56721;BME280;53183;47.412;18.884;2023-03-26T12:15:19;98398.00;;;18.22;36.48
56721;BME280;53183;47.412;18.884;2023-03-26T12:17:49;98402.81;;;18.10;36.73
56721;BME280;53183;47.412;18.884;2023-03-26T12:25:32;98382.63;;;17.36;34.44
56721;BME280;53183;47.412;18.884;2023-03-26T12:28:01;98375.94;;;17.04;35.54
56721;BME280;53183;47.412;18.884;2023-03-26T12:30:32;98368.28;;;17.01;35.01
56721;BME280;53183;47.412;18.884;2023-03-26T12:33:49;98369.84;;;16.94;35.41
56721;BME280;53183;47.412;18.884;2023-03-26T12:35:53;98363.97;;;16.63;35.53
56721;BME280;53183;47.412;18.884;2023-03-26T12:38:33;98352.84;;;16.40;36.20
56721;BME280;53183;47.412;18.884;2023-03-26T12:41:10;98351.38;;;16.55;37.64
56721;BME280;53183;47.412;18.884;2023-03-26T12:44:35;98346.87;;;16.56;37.75
56721;BME280;53183;47.412;18.884;2023-03-26T12:47:27;98340.13;;;16.52;38.00
56721;BME280;53183;47.412;18.884;2023-03-26T12:50:15;98342.62;;;16.63;38.55
56721;BME280;53183;47.412;18.884;2023-03-26T12:55:39;98334.16;;;16.68;37.32
56721;BME280;53183;47.412;18.884;2023-03-26T13:01:07;98323.41;;;16.87;38.39
56721;BME280;53183;47.412;18.884;2023-03-26T13:15:24;98290.28;;;17.51;35.99
56721;BME280;53183;47.412;18.884;2023-03-26T13:17:58;98292.50;;;17.38;36.64
56721;BME280;53183;47.412;18.884;2023-03-26T13:20:37;98289.41;;;17.07;38.27
56721;BME280;53183;47.412;18.884;2023-03-26T13:46:09;98252.56;;;17.28;35.07
56721;BME280;53183;47.412;18.884;2023-03-26T13:51:46;98242.97;;;17.70;36.74
56721;BME280;53183;47.412;18.884;2023-03-26T13:54:27;98233.88;;;17.80;36.96
56721;BME280;53183;47.412;18.884;2023-03-26T13:57:04;98231.53;;;17.77;35.88
56721;BME280;53183;47.412;18.884;2023-03-26T13:59:51;98236.06;;;17.85;35.21
56721;BME280;53183;47.412;18.884;2023-03-26T14:04:57;98211.88;;;17.34;36.37
56721;BME280;53183;47.412;18.884;2023-03-26T14:07:39;98201.72;;;17.38;35.75
56721;BME280;53183;47.412;18.884;2023-03-26T14:10:14;98208.03;;;17.37;35.78
56721;BME280;53183;47.412;18.884;2023-03-26T14:21:12;98194.22;;;17.16;35.58
56721;BME280;53183;47.412;18.884;2023-03-26T14:31:41;98193.78;;;17.02;34.80
56721;BME280;53183;47.412;18.884;2023-03-26T14:42:52;98187.56;;;16.76;33.36
56721;BME280;53183;47.412;18.884;2023-03-26T14:51:11;98160.72;;;16.95;32.87
56721;BME280;53183;47.412;18.884;2023-03-26T14:53:47;98153.53;;;16.96;33.91
56721;BME280;53183;47.412;18.884;2023-03-26T14:56:41;98149.81;;;16.88;33.41
56721;BME280;53183;47.412;18.884;2023-03-26T15:11:23;98127.25;;;16.83;34.65
56721;BME280;53183;47.412;18.884;2023-03-26T15:41:40;98095.78;;;16.15;36.22
56721;BME280;53183;47.412;18.884;2023-03-26T15:47:21;98094.97;;;15.97;36.58
56721;BME280;53183;47.412;18.884;2023-03-26T15:50:08;98101.06;;;15.79;37.46
56721;BME280;53183;47.412;18.884;2023-03-26T15:53:05;98096.37;;;15.73;38.28
56721;BME280;53183;47.412;18.884;2023-03-26T15:55:40;98084.44;;;15.77;38.99
56721;BME280;53183;47.412;18.884;2023-03-26T15:58:24;98083.28;;;15.80;38.03
56721;BME280;53183;47.412;18.884;2023-03-26T16:00:58;98081.91;;;15.66;38.18
56721;BME280;53183;47.412;18.884;2023-03-26T16:03:41;98074.75;;;15.48;38.23
56721;BME280;53183;47.412;18.884;2023-03-26T16:09:01;98051.56;;;15.31;39.32
56721;BME280;53183;47.412;18.884;2023-03-26T16:11:47;98057.03;;;15.02;39.25
56721;BME280;53183;47.412;18.884;2023-03-26T16:17:04;98037.81;;;14.71;40.36
56721;BME280;53183;47.412;18.884;2023-03-26T16:19:48;98032.81;;;14.58;40.69
56721;BME280;53183;47.412;18.884;2023-03-26T16:28:32;98018.00;;;14.07;41.87
56721;BME280;53183;47.412;18.884;2023-03-26T16:36:37;98013.22;;;13.72;43.38
56721;BME280;53183;47.412;18.884;2023-03-26T16:41:49;98009.31;;;13.47;44.43
56721;BME280;53183;47.412;18.884;2023-03-26T16:47:35;98010.88;;;13.19;45.86
56721;BME280;53183;47.412;18.884;2023-03-26T16:52:49;98016.41;;;13.06;46.46
56721;BME280;53183;47.412;18.884;2023-03-26T16:55:34;98018.03;;;12.87;47.32
56721;BME280;53183;47.412;18.884;2023-03-26T17:04:20;98012.25;;;12.52;48.63
56721;BME280;53183;47.412;18.884;2023-03-26T17:09:38;98014.00;;;12.41;49.18
56721;BME280;53183;47.412;18.884;2023-03-26T17:32:12;98010.00;;;12.05;51.55
56721;BME280;53183;47.412;18.884;2023-03-26T17:34:53;98009.44;;;12.02;51.49
56721;BME280;53183;47.412;18.884;2023-03-26T17:44:48;98002.00;;;11.95;52.34
56721;BME280;53183;47.412;18.884;2023-03-26T17:50:29;98012.50;;;11.86;53.14
56721;BME280;53183;47.412;18.884;2023-03-26T17:53:03;98006.22;;;11.87;53.14
56721;BME280;53183;47.412;18.884;2023-03-26T17:55:36;98002.75;;;11.86;53.44
56721;BME280;53183;47.412;18.884;2023-03-26T18:01:38;98007.78;;;11.89;53.49
56721;BME280;53183;47.412;18.884;2023-03-26T18:04:16;98005.16;;;11.89;53.62
56721;BME280;53183;47.412;18.884;2023-03-26T18:09:46;98002.03;;;11.84;54.00
56721;BME280;53183;47.412;18.884;2023-03-26T18:20:37;98003.97;;;11.71;55.21
56721;BME280;53183;47.412;18.884;2023-03-26T18:23:20;97995.00;;;11.62;54.93
56721;BME280;53183;47.412;18.884;2023-03-26T18:26:12;98003.19;;;11.59;55.33
56721;BME280;53183;47.412;18.884;2023-03-26T18:28:52;97986.00;;;11.54;55.53
56721;BME280;53183;47.412;18.884;2023-03-26T18:31:25;97997.31;;;11.56;55.67
56721;BME280;53183;47.412;18.884;2023-03-26T18:34:04;97984.06;;;11.56;55.83
56721;BME280;53183;47.412;18.884;2023-03-26T18:36:32;97998.00;;;11.58;55.80
56721;BME280;53183;47.412;18.884;2023-03-26T18:39:02;97982.84;;;11.60;55.65
56721;BME280;53183;47.412;18.884;2023-03-26T18:41:32;97982.84;;;11.60;55.67
56721;BME280;53183;47.412;18.884;2023-03-26T18:44:05;97980.22;;;11.60;55.70
56721;BME280;53183;47.412;18.884;2023-03-26T18:46:34;97972.84;;;11.63;55.81
56721;BME280;53183;47.412;18.884;2023-03-26T18:49:02;97972.03;;;11.63;56.25
56721;BME280;53183;47.412;18.884;2023-03-26T18:51:30;97970.53;;;11.70;56.20
56721;BME280;53183;47.412;18.884;2023-03-26T18:54:01;97971.28;;;11.72;55.77
56721;BME280;53183;47.412;18.884;2023-03-26T18:56:41;97955.75;;;11.67;55.86
56721;BME280;53183;47.412;18.884;2023-03-26T18:59:29;97955.66;;;11.69;55.51
56721;BME280;53183;47.412;18.884;2023-03-26T19:02:11;97951.03;;;11.71;55.56
56721;BME280;53183;47.412;18.884;2023-03-26T19:04:41;97949.38;;;11.70;55.23
56721;BME280;53183;47.412;18.884;2023-03-26T19:07:15;97949.25;;;11.71;55.14
56721;BME280;53183;47.412;18.884;2023-03-26T19:09:44;97941.31;;;11.71;55.20
56721;BME280;53183;47.412;18.884;2023-03-26T19:12:29;97937.56;;;11.74;55.73
56721;BME280;53183;47.412;18.884;2023-03-26T19:15:06;97926.97;;;11.74;56.12
56721;BME280;53183;47.412;18.884;2023-03-26T19:17:39;97928.66;;;11.75;55.63
56721;BME280;53183;47.412;18.884;2023-03-26T19:20:17;97927.56;;;11.78;54.96
56721;BME280;53183;47.412;18.884;2023-03-26T19:22:46;97930.91;;;11.80;54.86
56721;BME280;53183;47.412;18.884;2023-03-26T19:25:53;97922.97;;;11.80;55.32
56721;BME280;53183;47.412;18.884;2023-03-26T19:30:55;97912.13;;;11.83;54.93
56721;BME280;53183;47.412;18.884;2023-03-26T19:33:32;97912.13;;;11.83;54.41
56721;BME280;53183;47.412;18.884;2023-03-26T19:36:22;97911.41;;;11.81;54.17
56721;BME280;53183;47.412;18.884;2023-03-26T19:39:02;97900.72;;;11.82;53.68
56721;BME280;53183;47.412;18.884;2023-03-26T19:41:34;97891.16;;;11.91;53.78
56721;BME280;53183;47.412;18.884;2023-03-26T19:46:45;97877.50;;;11.86;53.24